• Join FlightAware (Why Join?)
  • Login
  • US Flag 
10:39PM EDT


 

Airport Tracker/Info


-or-


 

Live Flight TrackerFlight Track Log ✈ AAL1743 ✈ 23-Apr-2012 ✈ KAUS - KDFW

Flight Track Log - Related Links

Times and Time Zones

All times are in EDT time to prevent confusion due to time zone crossing. See the AAL1743 flight status page for this flight to view local times or setup timezone preferences in your user account.

Time Position Orientation Groundspeed Altitude Reporting Facility
EDT Latitude Longitude Course Direction KTS MPH feet Rate Location/Type
10:28AM 30.2123 -97.6659 335° Northwest  Level FlightAware Approximate
10:29AM 30.2833 -97.6502 231° Southwest  Level FlightAware Approximate
10:29AM 30.2558 -97.6897 330° Northwest 407 468 2,900  Level Houston Center
10:30AM 30.3106 -97.7267 338° Northwest 323 372 4,900 2,160 Climbing Houston Center
10:31AM 30.3822 -97.7600 338° Northwest 258 297 7,300 2,880 Climbing Houston Center
10:32AM 30.4517 -97.7928 338° Northwest 269 310 10,700 2,520 Climbing Houston Center
10:33AM 30.5272 -97.8289 337° Northwest 268 308 12,400 2,280 Climbing Houston Center
10:34AM 30.6128 -97.8703 337° Northwest 306 352 15,300 2,700 Climbing Houston Center
10:35AM 30.7025 -97.9144 339° North 336 387 17,900 2,400 Climbing Houston Center
10:36AM 30.7964 -97.9564 338° Northwest 352 405 20,200 2,520 Climbing Houston Center
10:37AM 30.8903 -98.0011 337° Northwest 358 412 23,000 1,140 Climbing Houston Center
10:39AM 31.0217 -98.0653 339° North 374 430 23,000  Level Fort Worth Center
10:40AM 31.1194 -98.1097 11° North 374 430 23,000  Level Fort Worth Center
10:41AM 31.2219 -98.0861 17° North 357 411 23,000  Level Fort Worth Center
10:42AM 31.3222 -98.0506 17° North 370 426 23,000  Level Fort Worth Center
10:43AM 31.4142 -98.0169 18° North 376 433 23,000  Level Fort Worth Center
10:44AM 31.5147 -97.9786 18° North 376 433 23,000  Level Fort Worth Center
10:45AM 31.6150 -97.9403 17° North 376 433 23,000  Level Fort Worth Center
10:46AM 31.7133 -97.9042 18° North 376 433 23,000 -720 Level Fort Worth Center
10:47AM 31.8136 -97.8656 18° North 381 438 21,600 -1,860 Descending Fort Worth Center
10:48AM 31.9183 -97.8244 19° North 363 418 19,400 -1,980 Descending Fort Worth Center
10:49AM 31.9997 -97.7906 18° North 350 403 17,700 -2,040 Descending Fort Worth Center
10:50AM 32.0958 -97.7542 16° North 335 386 15,400 -2,220 Descending Fort Worth Center
10:51AM 32.1811 -97.7253 17° North 328 377 13,300 -2,040 Descending FAA TRACON SMA TRACON (SMA)
10:51AM 32.2403 -97.7036 19° North 319 367 12,000 -1,740 Descending FAA TRACON SMA TRACON (SMA)
10:52AM 32.2964 -97.6803 22° Northeast 311 358 11,000 -1,140 Descending FAA TRACON SMA TRACON (SMA)
10:53AM 32.3419 -97.6583 44° Northeast 287 330 10,500 -1,080 Descending FAA TRACON SMA TRACON (SMA)
10:53AM 32.3817 -97.6131 45° Northeast 286 329 9,600 -1,560 Descending FAA TRACON SMA TRACON (SMA)
10:54AM 32.4203 -97.5678 47° Northeast 284 327 8,500 -1,440 Descending FAA TRACON SMA TRACON (SMA)
10:55AM 32.4533 -97.5258 57° Northeast 282 325 7,700 -1,320 Descending FAA TRACON SMA TRACON (SMA)
10:55AM 32.4819 -97.4731 65° Northeast 279 321 6,800 -1,380 Descending FAA TRACON SMA TRACON (SMA)
10:56AM 32.5039 -97.4161 64° Northeast 276 318 5,900 -1,140 Descending FAA TRACON SMA TRACON (SMA)
10:57AM 32.5236 -97.3678 65° Northeast 268 308 5,300 -720 Descending FAA TRACON SMA TRACON (SMA)
10:57AM 32.5450 -97.3136 66° East 261 300 5,000 -240 Descending FAA TRACON SMA TRACON (SMA)
10:58AM 32.5656 -97.2597 65° Northeast 258 297 5,000 -300 Level FAA TRACON SMA TRACON (SMA)
10:59AM 32.5844 -97.2111 65° Northeast 262 302 4,600 -660 Descending FAA TRACON SMA TRACON (SMA)
10:59AM 32.6056 -97.1575 62° Northeast 258 297 4,200 -660 Descending FAA TRACON SMA TRACON (SMA)
11:00AM 32.6286 -97.1069 22° Northeast 251 289 3,800 -660 Descending FAA TRACON SMA TRACON (SMA)
11:01AM 32.6672 -97.0886 17° North 244 281 3,400 -660 Descending FAA TRACON SMA TRACON (SMA)
11:01AM 32.7083 -97.0736 17° North 219 252 3,000 -660 Descending FAA TRACON SMA TRACON (SMA)